Time;durP1;ratioP1;P1;durP2;ratioP2;P2;SDS_P1;SDS_P2;PMS_P1;PMS_P2;Temp;Humidity;BMP_temperature;BMP_pressure;BME280_temperature;BME280_humidity;BME280_pressure;Samples;Min_cycle;Max_cycle;Signal;HPM_P1;HPM_P2
2023/08/26 00:01:50;;;;;;;;;;;17.30;99.90;;;;;;5091867;27;20555;-67
2023/08/26 00:04:16;;;;;;;20.73;9.10;;;17.30;99.90;;;;;;5089689;28;19916;-67
2023/08/26 00:06:41;;;;;;;;;;;17.30;99.90;;;;;;5086401;28;20044;-66
2023/08/26 00:09:07;;;;;;;18.05;9.27;;;17.30;99.90;;;;;;5086314;28;19923;-66
2023/08/26 00:11:33;;;;;;;28.13;10.27;;;17.20;99.90;;;;;;5094180;28;20393;-66
2023/08/26 00:13:58;;;;;;;16.15;8.98;;;17.10;99.90;;;;;;5093840;28;20092;-66
2023/08/26 00:16:24;;;;;;;22.42;9.45;;;17.10;99.90;;;;;;5092005;28;20562;-66
2023/08/26 00:18:50;;;;;;;24.90;10.15;;;17.10;99.90;;;;;;5078651;28;20043;-67
2023/08/26 00:21:20;;;;;;;22.17;10.32;;;17.10;99.90;;;;;;5070177;28;20040;-67
2023/08/26 00:23:46;;;;;;;23.85;10.15;;;17.10;99.90;;;;;;5070087;28;20044;-66
2023/08/26 00:26:12;;;;;;;;;;;17.10;99.90;;;;;;5073333;28;20045;-66
2023/08/26 00:28:37;;;;;;;20.73;10.20;;;17.10;99.90;;;;;;5074632;28;19923;-66
2023/08/26 00:31:03;;;;;;;;;;;17.10;99.90;;;;;;5071886;28;20496;-66
2023/08/26 00:33:29;;;;;;;22.30;9.85;;;17.00;99.90;;;;;;5078831;28;19920;-66
2023/08/26 00:35:55;;;;;;;19.15;9.13;;;17.00;99.90;;;;;;5080202;28;20636;-67
2023/08/26 00:38:21;;;;;;;;;;;17.00;99.90;;;;;;5084190;28;20221;-66
2023/08/26 00:40:46;;;;;;;20.02;9.43;;;17.00;99.90;;;;;;5084072;28;19920;-66
2023/08/26 00:43:12;;;;;;;23.25;10.55;;;17.00;99.90;;;;;;5071902;28;20109;-67
2023/08/26 00:45:39;;;;;;;;;;;17.00;99.90;;;;;;5073416;28;20147;-66
2023/08/26 00:48:08;;;;;;;;;;;17.00;99.90;;;;;;5072251;28;19924;-66
2023/08/26 00:50:34;;;;;;;18.08;9.70;;;17.00;99.90;;;;;;5074126;28;20005;-66
2023/08/26 00:53:01;;;;;;;26.48;9.45;;;17.00;99.90;;;;;;5066815;28;20045;-67
2023/08/26 00:55:26;;;;;;;22.52;9.77;;;17.00;99.90;;;;;;5077937;28;20033;-66
2023/08/26 00:57:53;;;;;;;;;;;17.00;99.90;;;;;;5078587;28;20092;-64
2023/08/26 01:00:19;;;;;;;23.90;10.90;;;16.90;99.90;;;;;;5063151;28;19962;-65
2023/08/26 01:02:45;;;;;;;21.45;10.27;;;16.90;99.90;;;;;;5072829;28;20051;-65
2023/08/26 01:05:11;;;;;;;15.85;9.10;;;17.00;99.90;;;;;;5064962;28;20029;-65
2023/08/26 01:07:37;;;;;;;;;;;17.00;99.90;;;;;;5067186;28;20730;-65
2023/08/26 01:10:03;;;;;;;24.23;10.60;;;16.90;99.90;;;;;;5080159;28;19916;-64
2023/08/26 01:12:39;;;;;;;25.10;10.05;;;16.90;99.90;;;;;;5074013;28;20037;-66
2023/08/26 01:15:09;;;;;;;24.48;11.15;;;16.90;99.90;;;;;;5077182;28;20039;-65
2023/08/26 01:17:35;;;;;;;27.20;9.93;;;16.80;99.90;;;;;;5080234;28;20047;-66
2023/08/26 01:20:03;;;;;;;19.75;10.40;;;16.90;99.90;;;;;;5068924;28;20699;-65
2023/08/26 01:22:33;;;;;;;19.95;10.77;;;16.90;99.90;;;;;;5064450;28;20048;-66
2023/08/26 01:24:59;;;;;;;22.00;10.20;;;16.90;99.90;;;;;;5076297;28;20049;-67
2023/08/26 01:27:25;;;;;;;20.25;9.35;;;16.90;99.90;;;;;;5077416;28;20396;-66
2023/08/26 01:29:50;;;;;;;;;;;16.90;99.90;;;;;;5073134;28;20047;-66
2023/08/26 01:32:25;;;;;;;19.52;9.95;;;16.90;99.90;;;;;;5069262;28;19923;-66
2023/08/26 01:34:55;;;;;;;21.77;10.25;;;16.90;99.90;;;;;;5069255;28;20028;-65
2023/08/26 01:37:22;;;;;;;22.52;11.00;;;16.90;99.90;;;;;;5069397;28;20047;-65
2023/08/26 01:39:50;;;;;;;24.05;11.00;;;16.90;99.90;;;;;;5065386;28;20044;-66
2023/08/26 01:42:19;;;;;;;29.40;12.82;;;16.90;99.90;;;;;;5075060;28;20043;-66
2023/08/26 01:44:46;;;;;;;20.65;12.23;;;16.90;99.90;;;;;;5074370;28;20048;-66
2023/08/26 01:47:12;;;;;;;19.95;10.95;;;16.80;99.90;;;;;;5071238;28;20036;-65
2023/08/26 01:49:37;;;;;;;;;;;16.90;99.90;;;;;;5064551;28;20043;-66
2023/08/26 01:52:03;;;;;;;19.60;11.68;;;16.90;99.90;;;;;;5082700;28;19998;-66
2023/08/26 01:54:29;;;;;;;36.72;14.88;;;16.90;99.90;;;;;;5083664;28;20040;-66
2023/08/26 01:56:54;;;;;;;26.15;12.68;;;16.80;99.90;;;;;;5077676;28;20086;-66
2023/08/26 01:59:20;;;;;;;;;;;16.80;99.90;;;;;;5076318;28;20062;-66
2023/08/26 02:01:46;;;;;;;26.90;13.15;;;16.80;99.90;;;;;;5076389;28;20486;-66
2023/08/26 02:04:11;;;;;;;;;;;16.70;99.90;;;;;;5065501;28;20048;-67
2023/08/26 02:06:40;;;;;;;21.00;11.40;;;16.70;99.90;;;;;;5083187;28;19947;-66
2023/08/26 02:09:06;;;;;;;26.05;11.57;;;16.70;99.90;;;;;;5070305;28;20051;-66
2023/08/26 02:11:32;;;;;;;28.20;13.95;;;16.70;99.90;;;;;;5070991;28;20044;-65
2023/08/26 02:13:58;;;;;;;;;;;16.60;99.90;;;;;;5080702;28;20040;-67
2023/08/26 02:16:23;;;;;;;29.23;13.50;;;16.70;99.90;;;;;;5074110;28;20008;-65
2023/08/26 02:18:49;;;;;;;;;;;16.60;99.90;;;;;;5071454;28;20081;-67
2023/08/26 02:21:15;;;;;;;29.83;11.50;;;16.60;99.90;;;;;;5067797;28;20299;-67
2023/08/26 02:23:40;;;;;;;;;;;16.60;99.90;;;;;;5065191;28;20029;-67
2023/08/26 02:26:06;;;;;;;17.10;10.13;;;16.60;99.90;;;;;;5069001;28;19925;-67
2023/08/26 02:28:31;;;;;;;;;;;16.60;99.90;;;;;;5073004;28;20668;-67
2023/08/26 02:30:57;;;;;;;23.63;11.60;;;16.60;99.90;;;;;;5068603;28;19920;-67
2023/08/26 02:33:24;;;;;;;29.80;11.88;;;16.60;99.90;;;;;;5067577;28;20032;-67
2023/08/26 02:35:50;;;;;;;30.65;12.68;;;16.50;99.90;;;;;;5074285;28;20044;-67
2023/08/26 02:38:15;;;;;;;;;;;16.50;99.90;;;;;;5063233;28;20032;-66
2023/08/26 02:40:41;;;;;;;22.45;11.77;;;16.50;99.90;;;;;;5064704;28;19916;-67
2023/08/26 02:43:06;;;;;;;;;;;16.50;99.90;;;;;;5063106;28;20033;-67
2023/08/26 02:45:32;;;;;;;22.10;12.05;;;16.50;99.90;;;;;;5074263;28;20002;-67
2023/08/26 02:47:58;;;;;;;28.92;11.82;;;16.60;99.90;;;;;;5070789;28;20704;-67
2023/08/26 02:50:24;;;;;;;;;;;16.50;99.90;;;;;;5068917;28;20414;-67
2023/08/26 02:52:50;;;;;;;29.65;13.73;;;16.60;99.90;;;;;;5070733;28;19920;-67
2023/08/26 02:55:16;;;;;;;20.70;11.48;;;16.50;99.90;;;;;;5076819;28;20036;-67
2023/08/26 02:57:42;;;;;;;22.85;10.77;;;16.50;99.90;;;;;;5066784;28;20075;-67
2023/08/26 03:00:09;;;;;;;25.63;13.13;;;16.60;99.90;;;;;;5070561;28;20235;-66
2023/08/26 03:02:35;;;;;;;23.92;12.85;;;16.60;99.90;;;;;;5069391;28;20045;-66
2023/08/26 03:05:02;;;;;;;28.60;11.70;;;16.50;99.90;;;;;;5061717;28;20110;-67
2023/08/26 03:07:27;;;;;;;19.33;12.07;;;16.50;99.90;;;;;;5062468;28;20050;-66
2023/08/26 03:09:53;;;;;;;;;;;16.40;99.90;;;;;;5072577;28;20439;-66
2023/08/26 03:12:19;;;;;;;23.77;11.27;;;16.50;99.90;;;;;;5075647;28;19920;-65
2023/08/26 03:14:44;;;;;;;24.60;12.68;;;16.50;99.90;;;;;;5069397;28;20043;-66
2023/08/26 03:17:10;;;;;;;;;;;16.50;99.90;;;;;;5077900;28;20044;-65
2023/08/26 03:19:39;;;;;;;18.40;11.00;;;16.50;99.90;;;;;;5069476;28;19977;-66
2023/08/26 03:22:05;;;;;;;19.60;12.38;;;16.50;99.90;;;;;;5066124;28;20093;-66
2023/08/26 03:24:34;;;;;;;;;;;16.50;99.90;;;;;;5063207;28;20198;-66
2023/08/26 03:26:59;;;;;;;20.60;11.40;;;16.50;99.90;;;;;;5075258;28;19920;-65
2023/08/26 03:29:25;;;;;;;;;;;16.60;99.90;;;;;;5075718;28;20036;-67
2023/08/26 03:31:50;;;;;;;33.33;11.77;;;16.60;99.90;;;;;;5074700;28;19923;-65
2023/08/26 03:34:16;;;;;;;18.90;11.60;;;16.60;99.90;;;;;;5070245;28;20540;-66
2023/08/26 03:36:41;;;;;;;;;;;16.50;99.90;;;;;;5071797;28;20044;-66
2023/08/26 03:39:08;;;;;;;20.73;10.77;;;16.50;99.90;;;;;;5063113;28;19920;-64
2023/08/26 03:41:33;;;;;;;23.10;13.10;;;16.50;99.90;;;;;;5064957;28;20074;-64
2023/08/26 03:43:59;;;;;;;;;;;16.50;99.90;;;;;;5070382;28;20066;-65
2023/08/26 03:46:26;;;;;;;21.63;12.93;;;16.40;99.90;;;;;;5067535;28;19920;-65
2023/08/26 03:48:52;;;;;;;31.23;13.70;;;16.40;99.90;;;;;;5070900;28;20117;-65
2023/08/26 03:51:18;;;;;;;;;;;16.40;99.90;;;;;;5079181;28;20123;-66
2023/08/26 03:53:43;;;;;;;24.65;13.73;;;16.40;99.90;;;;;;5076293;28;19927;-65
2023/08/26 03:56:09;;;;;;;23.00;15.05;;;16.40;99.90;;;;;;5070366;28;20032;-66
2023/08/26 03:58:34;;;;;;;;;;;16.40;99.90;;;;;;5086868;28;20113;-65
2023/08/26 04:01:02;;;;;;;23.42;15.50;;;16.40;99.90;;;;;;5082530;28;19984;-64
2023/08/26 04:03:28;;;;;;;21.85;12.52;;;16.30;99.90;;;;;;5079912;28;20452;-67
2023/08/26 04:05:57;;;;;;;;;;;16.30;99.90;;;;;;5082806;28;20131;-66
2023/08/26 04:08:22;;;;;;;19.52;11.85;;;16.30;99.90;;;;;;5086138;28;19915;-64
2023/08/26 04:10:48;;;;;;;;;;;16.20;99.90;;;;;;5079390;28;20036;-65
2023/08/26 04:13:20;;;;;;;17.13;9.48;;;16.10;99.90;;;;;;5074345;28;20455;-65
2023/08/26 04:15:46;;;;;;;17.27;10.50;;;16.10;99.90;;;;;;5071952;28;20559;-65
2023/08/26 04:18:12;;;;;;;;;;;16.00;99.90;;;;;;5083236;28;20044;-65
2023/08/26 04:20:38;;;;;;;17.77;10.67;;;16.00;99.90;;;;;;5065076;28;19924;-65
2023/08/26 04:23:03;;;;;;;;;;;15.90;99.90;;;;;;5081376;28;20209;-66
2023/08/26 04:25:29;;;;;;;20.27;9.75;;;15.90;99.90;;;;;;5073270;28;19967;-66
2023/08/26 04:27:54;;;;;;;;;;;15.80;99.90;;;;;;5071446;28;20033;-65
2023/08/26 04:30:20;;;;;;;14.77;9.10;;;15.70;99.90;;;;;;5066970;28;19917;-66
2023/08/26 04:32:47;;;;;;;;;;;15.60;99.90;;;;;;5071646;28;20029;-65
2023/08/26 04:35:13;;;;;;;16.90;9.07;;;15.50;99.90;;;;;;5065742;28;19916;-66
2023/08/26 04:37:39;;;;;;;15.90;9.27;;;15.50;99.90;;;;;;5076509;28;20129;-65
2023/08/26 04:40:14;;;;;;;;;;;15.50;99.90;;;;;;5064433;28;20141;-65
2023/08/26 04:42:40;;;;;;;14.20;9.07;;;15.50;99.90;;;;;;5066313;28;19920;-66
2023/08/26 04:45:06;;;;;;;16.88;8.30;;;15.40;99.90;;;;;;5081497;28;20073;-65
2023/08/26 04:47:33;;;;;;;16.20;9.23;;;15.40;99.90;;;;;;5068739;28;20723;-66
2023/08/26 04:49:58;;;;;;;14.20;10.32;;;15.40;99.90;;;;;;5064272;28;20048;-66
2023/08/26 04:52:24;;;;;;;;;;;15.40;99.90;;;;;;5068110;28;20028;-65
2023/08/26 04:54:50;;;;;;;20.65;10.15;;;15.30;99.90;;;;;;5064793;28;19920;-66
2023/08/26 04:57:17;;;;;;;13.68;9.63;;;15.30;99.90;;;;;;5070236;28;20036;-65
2023/08/26 04:59:42;;;;;;;18.83;9.40;;;15.30;99.90;;;;;;5075130;28;20109;-66
2023/08/26 05:02:08;;;;;;;;;;;15.20;99.90;;;;;;5073687;28;20043;-67
2023/08/26 05:04:36;;;;;;;11.45;6.78;;;15.10;99.90;;;;;;5077204;28;19966;-67
2023/08/26 05:07:03;;;;;;;8.98;6.13;;;15.20;99.90;;;;;;5070424;28;20135;-67
2023/08/26 05:09:29;;;;;;;11.82;5.68;;;15.30;99.90;;;;;;5077740;28;20044;-67
2023/08/26 05:11:58;;;;;;;9.73;5.57;;;15.60;99.90;;;;;;5063945;28;20115;-67
2023/08/26 05:14:24;;;;;;;8.57;5.28;;;15.80;99.90;;;;;;5081599;28;20036;-69
2023/08/26 05:16:50;;;;;;;8.88;5.57;;;15.70;99.90;;;;;;5072860;28;20052;-68
2023/08/26 05:19:16;;;;;;;;;;;15.60;99.90;;;;;;5072830;28;20141;-68
2023/08/26 05:21:41;;;;;;;10.90;6.70;;;15.50;99.90;;;;;;5071038;28;19924;-66
2023/08/26 05:24:07;;;;;;;17.42;7.35;;;15.60;99.90;;;;;;5075436;28;20040;-64
2023/08/26 05:26:33;;;;;;;8.80;6.55;;;15.80;99.90;;;;;;5071243;28;20456;-67
2023/08/26 05:28:58;;;;;;;;;;;16.40;99.90;;;;;;5075902;28;20517;-66
2023/08/26 05:31:25;;;;;;;9.77;6.13;;;17.10;99.90;;;;;;5069765;28;19964;-67
2023/08/26 05:33:50;;;;;;;9.65;5.35;;;17.80;99.90;;;;;;5074827;28;20554;-66
2023/08/26 05:36:16;;;;;;;;;;;17.90;99.90;;;;;;5072683;28;20041;-67
2023/08/26 05:38:41;;;;;;;9.02;4.72;;;17.50;99.90;;;;;;5068441;28;19916;-68
2023/08/26 05:41:07;;;;;;;;;;;17.70;99.90;;;;;;5075156;28;20493;-66
2023/08/26 05:43:33;;;;;;;3.83;3.17;;;17.80;99.90;;;;;;5069281;28;19923;-63
2023/08/26 05:45:58;;;;;;;4.40;2.67;;;17.70;99.90;;;;;;5072737;28;20715;-62
2023/08/26 05:48:24;;;;;;;5.60;3.15;;;17.30;99.90;;;;;;5078188;28;20510;-64
2023/08/26 05:50:50;;;;;;;6.18;2.80;;;17.00;99.90;;;;;;5067536;28;20400;-64
2023/08/26 05:53:15;;;;;;;4.32;2.55;;;16.40;99.90;;;;;;5075565;28;20111;-63
2023/08/26 05:55:41;;;;;;;;;;;16.70;99.90;;;;;;5071041;28;20128;-65
2023/08/26 05:58:07;;;;;;;4.13;2.35;;;16.40;99.90;;;;;;5066044;28;20447;-64
2023/08/26 06:00:34;;;;;;;9.07;2.35;;;16.10;99.90;;;;;;5071952;28;20036;-65
2023/08/26 06:03:00;;;;;;;4.78;2.40;;;16.10;99.90;;;;;;5063688;28;20082;-64
2023/08/26 06:05:25;;;;;;;2.65;2.00;;;16.00;99.90;;;;;;5074942;28;20153;-63
2023/08/26 06:07:51;;;;;;;;;;;16.10;99.90;;;;;;5067279;28;20058;-63
2023/08/26 06:10:17;;;;;;;6.65;2.70;;;16.00;99.90;;;;;;5067735;28;20046;-64
2023/08/26 06:12:43;;;;;;;5.72;2.60;;;15.90;99.90;;;;;;5077777;28;20032;-64
2023/08/26 06:15:09;;;;;;;;;;;15.90;99.90;;;;;;5067426;28;20075;-64
2023/08/26 06:17:35;;;;;;;3.85;1.70;;;16.00;99.90;;;;;;5082064;28;20410;-64
2023/08/26 06:20:04;;;;;;;5.05;1.70;;;16.70;99.90;;;;;;5073111;28;20063;-64
2023/08/26 06:22:30;;;;;;;5.20;1.85;;;17.20;99.90;;;;;;5072081;28;20098;-63
2023/08/26 06:24:56;;;;;;;;;;;18.00;99.90;;;;;;5081256;28;20028;-64
2023/08/26 06:27:23;;;;;;;3.47;1.53;;;18.00;99.90;;;;;;5066901;28;20408;-64
2023/08/26 06:29:55;;;;;;;9.13;1.92;;;18.80;98.60;;;;;;5071296;28;20717;-64
2023/08/26 06:32:21;;;;;;;3.22;1.45;;;18.60;98.70;;;;;;5074607;28;20036;-65
2023/08/26 06:34:47;;;;;;;2.95;1.60;;;17.90;99.60;;;;;;5066538;28;20579;-65
2023/08/26 06:37:13;;;;;;;5.15;1.25;;;17.30;99.90;;;;;;5069328;28;20093;-64
2023/08/26 06:39:39;;;;;;;2.05;1.15;;;16.80;99.90;;;;;;5073035;28;20052;-64
2023/08/26 06:42:05;;;;;;;;;;;16.50;99.90;;;;;;5068740;28;20039;-65
2023/08/26 06:44:30;;;;;;;4.55;1.67;;;16.20;99.90;;;;;;5064552;28;20034;-62
2023/08/26 06:46:56;;;;;;;3.00;1.48;;;15.90;99.90;;;;;;5071122;28;20565;-63
2023/08/26 06:49:22;;;;;;;3.97;1.17;;;15.70;99.90;;;;;;5059722;28;20048;-64
2023/08/26 06:51:48;;;;;;;4.47;2.10;;;15.60;99.90;;;;;;5065431;28;20036;-64
2023/08/26 06:54:13;;;;;;;3.17;1.40;;;15.40;99.90;;;;;;5064356;28;20040;-61
2023/08/26 06:56:39;;;;;;;;;;;15.40;99.90;;;;;;5066437;28;20404;-64
2023/08/26 06:59:07;;;;;;;5.63;1.42;;;15.30;99.90;;;;;;5066683;28;20033;-65
2023/08/26 07:01:34;;;;;;;1.30;0.95;;;15.40;99.90;;;;;;5053304;28;20062;-65
2023/08/26 07:04:17;;;;;;;5.60;1.20;;;15.30;99.90;;;;;;5080086;28;20535;-64
2023/08/26 07:06:45;;;;;;;4.03;1.20;;;15.30;99.90;;;;;;5060800;28;20044;-64
2023/08/26 07:09:11;;;;;;;6.30;1.38;;;15.30;99.90;;;;;;5069390;28;20102;-64
2023/08/26 07:11:36;;;;;;;;;;;15.30;99.90;;;;;;5075600;28;21380;-64
2023/08/26 07:14:02;;;;;;;3.80;1.15;;;15.30;99.90;;;;;;5066707;28;19970;-64
2023/08/26 07:16:29;;;;;;;1.48;0.90;;;15.20;99.90;;;;;;5067165;28;20510;-64
2023/08/26 07:18:54;;;;;;;6.70;1.55;;;15.30;99.90;;;;;;5064843;28;20040;-64
2023/08/26 07:21:20;;;;;;;;;;;15.30;99.90;;;;;;5069359;28;20039;-64
2023/08/26 07:23:45;;;;;;;4.68;1.13;;;15.20;99.90;;;;;;5064264;28;20003;-65
2023/08/26 07:26:11;;;;;;;;;;;15.30;99.90;;;;;;5080054;28;20048;-65
2023/08/26 07:28:37;;;;;;;8.43;1.50;;;15.30;99.90;;;;;;5072455;28;19915;-64
2023/08/26 07:31:05;;;;;;;2.58;1.00;;;15.30;99.90;;;;;;5067320;28;20043;-65
2023/08/26 07:33:31;;;;;;;5.05;1.02;;;15.30;99.90;;;;;;5072703;28;20665;-65
2023/08/26 07:36:05;;;;;;;4.15;1.13;;;15.40;99.90;;;;;;5075515;28;20072;-65
2023/08/26 07:38:31;;;;;;;3.42;1.00;;;15.40;99.90;;;;;;5072341;28;20048;-64
2023/08/26 07:40:56;;;;;;;;;;;15.30;99.90;;;;;;5062476;28;20094;-65
2023/08/26 07:43:22;;;;;;;2.45;0.82;;;15.20;99.90;;;;;;5072567;28;20010;-66
2023/08/26 07:45:48;;;;;;;;;;;15.30;99.90;;;;;;5070049;28;20073;-65
2023/08/26 07:48:13;;;;;;;3.15;1.00;;;15.30;99.90;;;;;;5083632;28;19926;-65
2023/08/26 07:50:39;;;;;;;;;;;15.40;99.90;;;;;;5072429;28;20135;-64
2023/08/26 07:53:05;;;;;;;2.10;0.82;;;15.40;99.90;;;;;;5068757;28;19919;-66
2023/08/26 07:55:32;;;;;;;7.38;0.98;;;15.50;99.90;;;;;;5080665;28;20051;-65
2023/08/26 07:57:58;;;;;;;2.03;0.80;;;15.50;99.90;;;;;;5083418;28;20707;-65
2023/08/26 08:00:23;;;;;;;;;;;15.60;99.90;;;;;;5070046;28;20143;-65
2023/08/26 08:02:49;;;;;;;2.17;0.80;;;15.90;99.90;;;;;;5074291;28;20015;-66
2023/08/26 08:05:15;;;;;;;2.63;1.10;;;16.20;99.90;;;;;;5073246;28;20039;-65
2023/08/26 08:07:41;;;;;;;1.98;1.00;;;16.90;99.90;;;;;;5062419;28;20047;-65
2023/08/26 08:10:08;;;;;;;;;;;17.70;99.90;;;;;;5077034;28;20036;-65
2023/08/26 08:12:35;;;;;;;1.88;0.77;;;18.70;98.80;;;;;;5074870;28;19923;-66
2023/08/26 08:15:01;;;;;;;3.28;1.35;;;19.50;97.10;;;;;;5068823;28;20040;-66
2023/08/26 08:17:27;;;;;;;3.75;0.88;;;20.80;95.90;;;;;;5079570;28;20048;-66
2023/08/26 08:19:53;;;;;;;3.88;1.02;;;21.70;92.70;;;;;;5074444;28;20070;-65
2023/08/26 08:22:32;;;;;;;3.88;0.77;;;21.90;92.40;;;;;;5073689;28;20151;-66
2023/08/26 08:24:58;;;;;;;5.03;1.20;;;22.20;91.70;;;;;;5071378;28;20039;-65
2023/08/26 08:27:24;;;;;;;1.40;0.70;;;22.60;89.80;;;;;;5081271;28;20040;-66
2023/08/26 08:29:49;;;;;;;2.67;0.88;;;22.40;90.10;;;;;;5066108;28;20044;-65
2023/08/26 08:32:15;;;;;;;2.92;0.77;;;22.30;89.50;;;;;;5063847;28;20041;-66
2023/08/26 08:34:41;;;;;;;3.20;0.73;;;22.40;90.00;;;;;;5072598;28;20081;-65
2023/08/26 08:37:06;;;;;;;3.47;0.68;;;22.50;88.00;;;;;;5068365;28;20036;-64
2023/08/26 08:39:32;;;;;;;2.08;0.98;;;22.20;89.80;;;;;;5071976;28;20127;-65
2023/08/26 08:42:02;;;;;;;5.97;1.33;;;22.00;90.90;;;;;;5079098;28;20078;-65
2023/08/26 08:44:32;;;;;;;4.10;0.95;;;21.30;91.80;;;;;;5077257;28;20122;-64
2023/08/26 08:46:58;;;;;;;2.38;0.70;;;20.20;93.60;;;;;;5075481;28;20553;-64
2023/08/26 08:49:24;;;;;;;1.35;0.70;;;19.20;95.50;;;;;;5068330;28;20055;-64
2023/08/26 08:51:51;;;;;;;2.70;0.95;;;18.60;97.60;;;;;;5073483;28;20032;-63
2023/08/26 08:54:17;;;;;;;2.42;0.88;;;18.10;98.60;;;;;;5068885;28;20043;-63
2023/08/26 08:56:43;;;;;;;;;;;17.90;99.60;;;;;;5069863;28;20036;-64
2023/08/26 08:59:11;;;;;;;3.83;1.20;;;17.90;99.90;;;;;;5069056;28;20655;-64
2023/08/26 09:01:37;;;;;;;2.63;1.02;;;17.90;99.90;;;;;;5078811;28;20040;-63
2023/08/26 09:04:07;;;;;;;3.58;1.25;;;17.90;99.90;;;;;;5070200;28;20036;-63
2023/08/26 09:06:34;;;;;;;3.75;0.90;;;17.90;99.90;;;;;;5066303;28;20067;-63
2023/08/26 09:09:01;;;;;;;2.67;1.00;;;17.90;99.90;;;;;;5076180;28;20109;-63
2023/08/26 09:11:27;;;;;;;3.00;0.90;;;18.00;99.90;;;;;;5079080;28;20028;-63
2023/08/26 09:13:53;;;;;;;4.15;1.10;;;18.00;99.90;;;;;;5080056;28;20495;-63
2023/08/26 09:16:28;;;;;;;;;;;17.70;99.90;;;;;;5066304;28;20044;-63
2023/08/26 09:18:59;;;;;;;7.15;1.35;;;17.80;99.90;;;;;;5062492;28;19920;-64
2023/08/26 09:21:27;;;;;;;4.03;1.40;;;17.70;99.80;;;;;;5075491;28;20036;-65
2023/08/26 09:24:03;;;;;;;6.40;1.10;;;17.70;99.90;;;;;;5074005;28;20122;-63
2023/08/26 09:26:29;;;;;;;6.03;1.08;;;17.70;99.90;;;;;;5069141;28;20046;-64
2023/08/26 09:28:54;;;;;;;;;;;17.90;99.90;;;;;;5073493;28;20407;-63
2023/08/26 09:31:47;;;;;;;3.20;0.80;;;18.00;99.90;;;;;;5072187;28;20446;-64
2023/08/26 09:34:28;;;;;;;2.20;0.95;;;17.90;99.90;;;;;;5079552;28;20036;-63
2023/08/26 09:36:54;;;;;;;2.97;0.70;;;17.90;99.90;;;;;;5075234;28;20147;-61
2023/08/26 09:39:21;;;;;;;;;;;18.00;99.90;;;;;;5068395;28;20136;-62
2023/08/26 09:41:47;;;;;;;;;;;17.80;99.70;;;;;;5070859;28;19916;-63
2023/08/26 09:44:15;;;;;;;6.63;1.00;;;17.80;99.40;;;;;;5062148;28;20375;-65
2023/08/26 09:46:42;;;;;;;1.95;0.80;;;17.80;99.90;;;;;;5070515;28;20040;-64
2023/08/26 09:49:15;;;;;;;4.13;0.93;;;17.80;98.60;;;;;;5066491;28;20056;-64
2023/08/26 09:51:52;;;;;;;7.05;1.30;;;17.80;99.90;;;;;;5072366;28;20044;-63
2023/08/26 09:54:19;;;;;;;4.30;1.05;;;18.00;99.90;;;;;;5068488;28;20032;-64
2023/08/26 09:56:46;;;;;;;4.10;1.13;;;17.90;99.90;;;;;;5070963;28;20053;-64
2023/08/26 09:59:12;;;;;;;2.00;0.68;;;18.00;99.90;;;;;;5065973;28;20135;-64
2023/08/26 10:01:39;;;;;;;2.90;0.70;;;18.10;99.90;;;;;;5069476;28;20075;-65
2023/08/26 10:04:16;;;;;;;3.25;0.80;;;18.20;99.90;;;;;;5072502;28;20224;-64
2023/08/26 10:06:53;;;;;;;2.72;1.10;;;18.40;99.90;;;;;;5069286;28;20046;-62
2023/08/26 10:09:38;;;;;;;2.00;1.20;;;18.60;99.90;;;;;;5070951;28;20043;-64
2023/08/26 10:12:09;;;;;;;4.80;1.20;;;18.60;99.90;;;;;;5074550;28;20032;-62
2023/08/26 10:14:38;;;;;;;6.75;1.02;;;18.60;99.90;;;;;;5074938;28;20110;-61
2023/08/26 10:17:11;;;;;;;5.15;1.85;;;18.50;99.50;;;;;;5062863;28;20046;-63
2023/08/26 10:19:38;;;;;;;1.90;0.90;;;18.50;99.60;;;;;;5070621;28;20032;-64
2023/08/26 10:22:04;;;;;;;3.00;0.90;;;18.70;99.20;;;;;;5068816;28;20047;-64
2023/08/26 10:24:30;;;;;;;2.47;0.90;;;18.60;99.20;;;;;;5075134;28;20048;-63
2023/08/26 10:26:56;;;;;;;;;;;18.60;98.30;;;;;;5063310;28;20101;-63
2023/08/26 10:29:23;;;;;;;3.17;1.10;;;18.60;98.50;;;;;;5073796;28;19912;-63
2023/08/26 10:31:48;;;;;;;2.28;0.80;;;18.60;98.70;;;;;;5067363;28;20047;-62
2023/08/26 10:34:14;;;;;;;;;;;18.70;98.40;;;;;;5075925;28;20025;-62
2023/08/26 10:36:47;;;;;;;1.98;0.90;;;18.80;97.40;;;;;;5062908;28;19920;-63
2023/08/26 10:39:19;;;;;;;2.90;0.82;;;18.90;97.90;;;;;;5073023;28;20036;-62
2023/08/26 10:42:14;;;;;;;3.53;1.00;;;19.00;97.50;;;;;;5062679;28;20036;-62
2023/08/26 10:44:41;;;;;;;2.17;0.70;;;19.00;97.20;;;;;;5079452;28;20040;-63
2023/08/26 10:47:08;;;;;;;2.35;0.90;;;18.90;97.80;;;;;;5074344;28;20049;-63
2023/08/26 10:49:38;;;;;;;4.03;0.68;;;19.00;97.20;;;;;;5064091;28;20090;-63
2023/08/26 10:52:17;;;;;;;1.77;0.90;;;19.00;97.60;;;;;;5081081;28;20051;-63
2023/08/26 10:54:46;;;;;;;2.83;0.75;;;19.00;96.60;;;;;;5074431;28;20040;-63
2023/08/26 10:57:12;;;;;;;2.28;0.60;;;19.10;97.20;;;;;;5076206;28;20064;-63
2023/08/26 10:59:39;;;;;;;;;;;19.20;97.50;;;;;;5083526;28;20067;-63
2023/08/26 11:02:09;;;;;;;3.83;0.82;;;19.40;97.00;;;;;;5070113;28;21226;-62
2023/08/26 11:04:44;;;;;;;2.30;0.85;;;19.40;96.70;;;;;;5063844;28;20044;-62
2023/08/26 11:07:17;;;;;;;1.80;0.73;;;19.40;96.70;;;;;;5071323;28;20041;-63
2023/08/26 11:09:43;;;;;;;1.95;0.80;;;19.50;97.90;;;;;;5071094;28;20512;-62
2023/08/26 11:12:27;;;;;;;;;;;19.60;95.10;;;;;;5073100;28;20071;-62
2023/08/26 11:15:06;;;;;;;0.98;0.50;;;19.30;97.20;;;;;;5073907;28;19915;-63
2023/08/26 11:17:32;;;;;;;5.20;0.80;;;19.50;97.20;;;;;;5080138;28;20052;-62
2023/08/26 11:19:58;;;;;;;2.15;0.70;;;19.50;96.80;;;;;;5072815;28;20043;-63
2023/08/26 11:22:26;;;;;;;;;;;19.60;96.90;;;;;;5072977;28;20040;-61
2023/08/26 11:24:52;;;;;;;3.22;0.50;;;19.70;97.70;;;;;;5063933;28;20103;-64
2023/08/26 11:27:18;;;;;;;;;;;19.70;96.50;;;;;;5058852;28;20480;-63
2023/08/26 11:29:44;;;;;;;1.00;0.75;;;19.80;97.10;;;;;;5068583;28;19916;-61
2023/08/26 11:32:10;;;;;;;3.58;1.38;;;19.80;96.00;;;;;;5069010;28;20037;-63
2023/08/26 11:34:36;;;;;;;1.65;0.80;;;19.70;96.60;;;;;;5072321;28;20044;-63
2023/08/26 11:37:02;;;;;;;2.85;0.88;;;19.70;96.20;;;;;;5068964;28;20067;-63
2023/08/26 11:39:33;;;;;;;6.65;0.77;;;19.80;96.90;;;;;;5071659;28;20117;-62
2023/08/26 11:41:59;;;;;;;1.48;0.75;;;19.70;96.10;;;;;;5069406;28;20032;-62
2023/08/26 11:44:26;;;;;;;2.40;0.65;;;19.90;97.90;;;;;;5067603;28;20440;-63
2023/08/26 11:46:53;;;;;;;3.20;0.80;;;20.10;96.90;;;;;;5065634;28;20416;-63
2023/08/26 11:49:19;;;;;;;5.38;1.10;;;19.90;96.40;;;;;;5068517;28;20044;-63
2023/08/26 11:51:45;;;;;;;1.85;0.95;;;20.00;95.30;;;;;;5065739;28;20096;-63
2023/08/26 11:54:24;;;;;;;2.40;0.85;;;20.10;95.90;;;;;;5069839;28;20071;-63
2023/08/26 11:56:49;;;;;;;2.35;1.02;;;20.10;95.40;;;;;;5067709;28;20127;-63
2023/08/26 11:59:19;;;;;;;1.33;0.77;;;20.10;96.50;;;;;;5063013;28;20136;-63
2023/08/26 12:01:46;;;;;;;1.95;0.73;;;19.80;96.30;;;;;;5064512;28;20044;-63
2023/08/26 12:04:13;;;;;;;1.48;0.55;;;19.50;97.80;;;;;;5061908;28;20036;-61
2023/08/26 12:06:39;;;;;;;1.75;0.75;;;19.60;97.20;;;;;;5067387;28;20048;-61
2023/08/26 12:09:12;;;;;;;1.77;0.77;;;19.90;98.10;;;;;;5064178;28;20040;-62
2023/08/26 12:11:39;;;;;;;3.28;0.57;;;20.10;96.20;;;;;;5064254;28;20099;-60
2023/08/26 12:14:18;;;;;;;1.48;0.70;;;20.10;95.30;;;;;;5062605;28;20041;-62
2023/08/26 12:16:45;;;;;;;3.50;1.00;;;20.20;95.90;;;;;;5068915;28;20045;-61
2023/08/26 12:19:19;;;;;;;2.97;0.70;;;20.20;94.80;;;;;;5071400;28;21158;-61
2023/08/26 12:21:51;;;;;;;2.10;0.90;;;20.00;95.10;;;;;;5065800;28;20036;-62
2023/08/26 12:24:26;;;;;;;2.75;0.88;;;19.90;94.10;;;;;;5068987;28;20077;-62
2023/08/26 12:26:53;;;;;;;1.98;0.95;;;19.40;95.00;;;;;;5080227;28;20054;-62
2023/08/26 12:29:19;;;;;;;2.20;0.82;;;19.00;95.10;;;;;;5076373;28;20051;-61
2023/08/26 12:31:47;;;;;;;;;;;18.90;96.60;;;;;;5071215;28;20068;-64
2023/08/26 12:34:12;;;;;;;2.83;0.60;;;19.10;96.50;;;;;;5073550;28;19927;-63
2023/08/26 12:36:38;;;;;;;;;;;19.10;96.70;;;;;;5071600;28;20040;-63
2023/08/26 12:39:04;;;;;;;0.77;0.57;;;19.20;96.00;;;;;;5074341;28;19920;-63
2023/08/26 12:41:30;;;;;;;2.25;0.50;;;19.30;95.70;;;;;;5067426;28;20040;-63
2023/08/26 12:43:56;;;;;;;;;;;19.30;95.70;;;;;;5072489;28;20032;-63
2023/08/26 12:46:22;;;;;;;1.35;0.90;;;19.30;96.00;;;;;;5070210;28;20503;-63
2023/08/26 12:48:49;;;;;;;4.38;1.42;;;19.30;96.60;;;;;;5062856;28;20722;-63
2023/08/26 12:51:14;;;;;;;2.13;0.80;;;19.20;95.70;;;;;;5071779;28;20040;-63
2023/08/26 12:53:40;;;;;;;;;;;19.10;96.40;;;;;;5063173;28;20043;-62
2023/08/26 12:56:06;;;;;;;2.53;0.80;;;19.30;96.80;;;;;;5066144;28;19947;-63
2023/08/26 12:58:31;;;;;;;2.40;1.10;;;19.20;95.40;;;;;;5063368;28;20086;-61
2023/08/26 13:00:57;;;;;;;;;;;19.40;97.10;;;;;;5058207;28;20068;-61